Overview Statistics Trail Chart Weather Telemetry Raw packets
 

This is the latest recevied weather packets stored in our database for station/object EA3CH. If no packets are shown the sender has not sent any weather packets the latest 10 day(s).

<< 32 33 34 35 36 37 38 >>
Time Temp. Humidity Pressure Rain* Wind** Luminosity Snow
1787955304 15.56° C 63% 1020.4 hPa 0 mm - 0 W/m² -
1787954417 16.11° C 53% 1020.1 hPa 0 mm - 0 W/m² -
1787954417 16.11° C 62% 1020.2 hPa 0 mm - 0 W/m² -
1787953503 16.11° C 60% 1020 hPa 0 mm - 0 W/m² -
1787952604 16.67° C 58% 1019.7 hPa 0 mm - 0 W/m² -
1787951705 17.78° C 47% 1019.4 hPa 0 mm - 0 W/m² -
1787951704 17.22° C 57% 1019.6 hPa 0 mm - 0 W/m² -
1787950804 17.78° C 56% 1019.8 hPa 0 mm - 0 W/m² -
1787949905 18.33° C 46% 1019.4 hPa 0 mm - 0 W/m² -
1787949903 17.22° C 56% 1019.6 hPa 0 mm - 0 W/m² -
1787949004 18.33° C 54% 1019.7 hPa 0 mm - 0 W/m² -
1787948106 19.44° C 42% 1019.3 hPa 0 mm - 0 W/m² -
1787948103 19.44° C 51% 1019.5 hPa 0 mm - 0 W/m² -
1787947213 20° C 40% 1019.1 hPa 0 mm - 0 W/m² -
1787947213 19.44° C 50% 1019.3 hPa 0 mm - 0 W/m² -
1787946304 20° C 49% 1019.2 hPa 0 mm - 0 W/m² -
1787945405 20.56° C 39% 1018.9 hPa 0 mm - 0 W/m² -
1787945403 20° C 48% 1019 hPa 0 mm - 0 W/m² -
1787944513 20° C 48% 1018.9 hPa 0 mm - 0 W/m² -
1787943604 20.56° C 37% 1018.5 hPa 0 mm - 0 W/m² -
1787942705 21.11° C 36% 1018.3 hPa 0 mm - 0 W/m² -
1787942703 20.56° C 45% 1018.5 hPa 0 mm - 0 W/m² -
1787941804 21.67° C 44% 1018.6 hPa 0 mm - 0 W/m² -
1787940914 22.22° C 43% 1018.4 hPa 0 mm - 0 W/m² -
1787940003 23.33° C 41% 1018.3 hPa 0 mm - 0 W/m² -

* Rain latest hour (hover to see other rain measurements)
** Current wind speed in m/s (hover to see current wind gust speed)